Martel, Ohio
Current Conditions -  °F | °C
As of 6:03 AM on Wednesday 22 Oct 2014 (Local Time) from KMNN Reporting Station
Haze Haze  
Wind Chill: 36°   Ceiling: 500
Heat Index: 43°   Visibility: 4mi
Dew Point: 41°   Wind: 13mph
Humidity: 93%   Direction: 330°NNW
Pressure: 30.21"   Gusts: NA
Location:  40.67°N, 82.91°W
Report Text: KMNN 221003Z AUTO 33011KT 4SM BR OVC005 06/05 A3021 RMK AO2 T00610050 TSNO
Loading
Personal Weather Stations






























Interactive Weather Map
Tropical Storm Tracking
New forecast layout! Learn more

10-Day Weather Forecast

Advertisements
Track Severe Weather on mobile